sensor_id;sensor_type;location;lat;lon;timestamp;pressure;altitude;pressure_sealevel;temperature;humidity
59055;BME280;44845;51.444;7.460;2024-03-02T00:00:49;98289.09;;;7.93;70.16
59055;BME280;44845;51.444;7.460;2024-03-02T00:03:15;98289.91;;;7.95;70.01
59055;BME280;44845;51.444;7.460;2024-03-02T00:05:40;98288.00;;;8.02;69.83
59055;BME280;44845;51.444;7.460;2024-03-02T00:08:06;98287.34;;;7.92;70.15
59055;BME280;44845;51.444;7.460;2024-03-02T00:10:41;98293.50;;;7.89;69.90
59055;BME280;44845;51.444;7.460;2024-03-02T00:13:10;98292.47;;;7.98;69.81
59055;BME280;44845;51.444;7.460;2024-03-02T00:18:18;98294.41;;;7.88;69.60
59055;BME280;44845;51.444;7.460;2024-03-02T00:20:44;98296.09;;;7.91;69.85
59055;BME280;44845;51.444;7.460;2024-03-02T00:23:14;98290.88;;;7.91;70.08
59055;BME280;44845;51.444;7.460;2024-03-02T00:25:51;98295.09;;;7.97;70.02
59055;BME280;44845;51.444;7.460;2024-03-02T00:28:23;98297.59;;;8.02;69.07
59055;BME280;44845;51.444;7.460;2024-03-02T00:31:08;98301.38;;;7.88;69.85
59055;BME280;44845;51.444;7.460;2024-03-02T00:33:40;98302.91;;;7.98;69.52
59055;BME280;44845;51.444;7.460;2024-03-02T00:36:06;98295.06;;;7.98;69.72
59055;BME280;44845;51.444;7.460;2024-03-02T00:38:32;98291.44;;;8.04;69.01
59055;BME280;44845;51.444;7.460;2024-03-02T00:41:02;98289.28;;;7.84;69.68
59055;BME280;44845;51.444;7.460;2024-03-02T00:43:47;98291.59;;;7.96;69.56
59055;BME280;44845;51.444;7.460;2024-03-02T00:46:17;98294.09;;;8.03;69.47
59055;BME280;44845;51.444;7.460;2024-03-02T00:48:48;98294.16;;;7.99;69.54
59055;BME280;44845;51.444;7.460;2024-03-02T00:51:13;98292.25;;;8.08;68.71
59055;BME280;44845;51.444;7.460;2024-03-02T00:53:39;98288.13;;;7.97;68.74
59055;BME280;44845;51.444;7.460;2024-03-02T00:56:09;98292.38;;;8.02;69.13
59055;BME280;44845;51.444;7.460;2024-03-02T00:58:35;98280.44;;;7.89;69.30
59055;BME280;44845;51.444;7.460;2024-03-02T01:01:00;98284.59;;;8.00;68.90
59055;BME280;44845;51.444;7.460;2024-03-02T01:03:26;98280.44;;;7.91;69.33
59055;BME280;44845;51.444;7.460;2024-03-02T01:05:51;98294.09;;;8.03;68.75
59055;BME280;44845;51.444;7.460;2024-03-02T01:08:16;98287.50;;;7.86;69.06
59055;BME280;44845;51.444;7.460;2024-03-02T01:10:42;98282.84;;;7.99;68.93
59055;BME280;44845;51.444;7.460;2024-03-02T01:13:07;98277.56;;;8.02;68.68
59055;BME280;44845;51.444;7.460;2024-03-02T01:15:33;98270.38;;;8.12;68.59
59055;BME280;44845;51.444;7.460;2024-03-02T01:17:58;98272.13;;;8.11;68.66
59055;BME280;44845;51.444;7.460;2024-03-02T01:20:24;98268.75;;;8.06;68.40
59055;BME280;44845;51.444;7.460;2024-03-02T01:22:50;98269.34;;;8.19;68.45
59055;BME280;44845;51.444;7.460;2024-03-02T01:25:15;98248.44;;;8.19;68.43
59055;BME280;44845;51.444;7.460;2024-03-02T01:27:40;98258.16;;;8.14;68.40
59055;BME280;44845;51.444;7.460;2024-03-02T01:30:06;98254.19;;;7.97;68.88
59055;BME280;44845;51.444;7.460;2024-03-02T01:32:32;98257.47;;;8.06;68.03
59055;BME280;44845;51.444;7.460;2024-03-02T01:34:57;98247.03;;;8.06;68.62
59055;BME280;44845;51.444;7.460;2024-03-02T01:37:22;98249.94;;;7.93;69.33
59055;BME280;44845;51.444;7.460;2024-03-02T01:39:48;98248.84;;;8.04;68.79
59055;BME280;44845;51.444;7.460;2024-03-02T01:42:14;98258.47;;;8.00;69.07
59055;BME280;44845;51.444;7.460;2024-03-02T01:44:40;98259.69;;;7.85;68.65
59055;BME280;44845;51.444;7.460;2024-03-02T01:47:05;98257.97;;;7.84;68.77
59055;BME280;44845;51.444;7.460;2024-03-02T01:49:31;98251.75;;;7.89;69.25
59055;BME280;44845;51.444;7.460;2024-03-02T01:51:57;98246.50;;;7.89;68.43
59055;BME280;44845;51.444;7.460;2024-03-02T01:54:23;98253.41;;;7.94;68.56
59055;BME280;44845;51.444;7.460;2024-03-02T01:56:48;98254.34;;;7.91;68.12
59055;BME280;44845;51.444;7.460;2024-03-02T01:59:13;98248.25;;;7.89;68.00
59055;BME280;44845;51.444;7.460;2024-03-02T02:01:39;98247.16;;;8.01;67.98
59055;BME280;44845;51.444;7.460;2024-03-02T02:04:04;98252.56;;;7.92;68.46
59055;BME280;44845;51.444;7.460;2024-03-02T02:06:32;98244.72;;;7.93;67.96
59055;BME280;44845;51.444;7.460;2024-03-02T02:08:57;98239.34;;;7.99;68.08
59055;BME280;44845;51.444;7.460;2024-03-02T02:11:22;98239.38;;;7.98;68.25
59055;BME280;44845;51.444;7.460;2024-03-02T02:13:48;98242.00;;;7.98;68.31
59055;BME280;44845;51.444;7.460;2024-03-02T02:16:13;98234.81;;;8.08;68.05
59055;BME280;44845;51.444;7.460;2024-03-02T02:18:38;98236.63;;;8.04;68.22
59055;BME280;44845;51.444;7.460;2024-03-02T02:21:05;98232.31;;;8.03;67.82
59055;BME280;44845;51.444;7.460;2024-03-02T02:23:30;98229.72;;;8.02;67.93
59055;BME280;44845;51.444;7.460;2024-03-02T02:25:56;98238.44;;;8.00;68.37
59055;BME280;44845;51.444;7.460;2024-03-02T02:28:21;98237.75;;;7.92;68.20
59055;BME280;44845;51.444;7.460;2024-03-02T02:30:46;98233.34;;;7.96;68.58
59055;BME280;44845;51.444;7.460;2024-03-02T02:33:12;98231.38;;;8.06;68.22
59055;BME280;44845;51.444;7.460;2024-03-02T02:35:37;98236.78;;;7.96;68.75
59055;BME280;44845;51.444;7.460;2024-03-02T02:38:03;98233.84;;;7.74;68.65
59055;BME280;44845;51.444;7.460;2024-03-02T02:40:28;98223.13;;;7.85;68.84
59055;BME280;44845;51.444;7.460;2024-03-02T02:42:57;98224.88;;;7.86;68.70
59055;BME280;44845;51.444;7.460;2024-03-02T02:45:24;98222.16;;;7.91;68.34
59055;BME280;44845;51.444;7.460;2024-03-02T02:47:49;98211.81;;;7.86;68.26
59055;BME280;44845;51.444;7.460;2024-03-02T02:50:15;98226.28;;;7.99;67.79
59055;BME280;44845;51.444;7.460;2024-03-02T02:52:41;98221.13;;;7.96;67.62
59055;BME280;44845;51.444;7.460;2024-03-02T02:55:11;98214.03;;;8.02;67.73
59055;BME280;44845;51.444;7.460;2024-03-02T02:57:39;98218.44;;;8.01;68.09
59055;BME280;44845;51.444;7.460;2024-03-02T03:00:06;98214.25;;;7.94;67.95
59055;BME280;44845;51.444;7.460;2024-03-02T03:02:38;98221.28;;;7.90;67.34
59055;BME280;44845;51.444;7.460;2024-03-02T03:05:05;98213.41;;;7.92;67.67
59055;BME280;44845;51.444;7.460;2024-03-02T03:07:31;98214.13;;;7.98;67.55
59055;BME280;44845;51.444;7.460;2024-03-02T03:09:56;98215.09;;;7.94;67.50
59055;BME280;44845;51.444;7.460;2024-03-02T03:12:22;98219.41;;;7.95;68.02
59055;BME280;44845;51.444;7.460;2024-03-02T03:14:47;98228.13;;;7.94;67.22
59055;BME280;44845;51.444;7.460;2024-03-02T03:17:12;98225.63;;;7.91;67.89
59055;BME280;44845;51.444;7.460;2024-03-02T03:19:38;98225.53;;;7.94;67.56
59055;BME280;44845;51.444;7.460;2024-03-02T03:22:04;98219.34;;;7.98;67.49
59055;BME280;44845;51.444;7.460;2024-03-02T03:24:30;98219.53;;;7.89;68.00
59055;BME280;44845;51.444;7.460;2024-03-02T03:26:55;98220.47;;;7.88;68.32
59055;BME280;44845;51.444;7.460;2024-03-02T03:29:23;98214.25;;;7.92;68.19
59055;BME280;44845;51.444;7.460;2024-03-02T03:31:48;98220.47;;;7.88;67.82
59055;BME280;44845;51.444;7.460;2024-03-02T03:34:13;98214.44;;;7.84;68.60
59055;BME280;44845;51.444;7.460;2024-03-02T03:36:41;98214.38;;;7.87;67.93
59055;BME280;44845;51.444;7.460;2024-03-02T03:39:06;98221.34;;;7.87;68.20
59055;BME280;44845;51.444;7.460;2024-03-02T03:41:32;98222.09;;;7.92;67.95
59055;BME280;44845;51.444;7.460;2024-03-02T03:43:57;98224.78;;;7.89;68.21
59055;BME280;44845;51.444;7.460;2024-03-02T03:46:22;98225.72;;;7.86;68.09
59055;BME280;44845;51.444;7.460;2024-03-02T03:48:48;98214.25;;;7.94;67.67
59055;BME280;44845;51.444;7.460;2024-03-02T03:51:13;98224.59;;;7.98;67.26
59055;BME280;44845;51.444;7.460;2024-03-02T03:53:39;98230.78;;;7.93;68.24
59055;BME280;44845;51.444;7.460;2024-03-02T03:56:04;98221.31;;;7.88;68.02
59055;BME280;44845;51.444;7.460;2024-03-02T03:58:30;98224.06;;;7.82;68.32
59055;BME280;44845;51.444;7.460;2024-03-02T04:00:55;98224.72;;;7.92;68.63
59055;BME280;44845;51.444;7.460;2024-03-02T04:03:21;98235.94;;;7.96;67.96
59055;BME280;44845;51.444;7.460;2024-03-02T04:05:47;98228.88;;;8.01;67.37
59055;BME280;44845;51.444;7.460;2024-03-02T04:08:12;98227.38;;;7.91;67.86
59055;BME280;44845;51.444;7.460;2024-03-02T04:10:37;98231.56;;;7.96;67.90
59055;BME280;44845;51.444;7.460;2024-03-02T04:13:03;98234.91;;;8.03;67.74
59055;BME280;44845;51.444;7.460;2024-03-02T04:15:28;98225.47;;;7.97;67.96
59055;BME280;44845;51.444;7.460;2024-03-02T04:17:54;98213.28;;;7.98;67.71
59055;BME280;44845;51.444;7.460;2024-03-02T04:20:20;98218.66;;;7.90;67.44
59055;BME280;44845;51.444;7.460;2024-03-02T04:22:45;98221.97;;;7.98;67.77
59055;BME280;44845;51.444;7.460;2024-03-02T04:25:11;98226.00;;;7.74;67.42
59055;BME280;44845;51.444;7.460;2024-03-02T04:27:36;98233.28;;;7.97;67.71
59055;BME280;44845;51.444;7.460;2024-03-02T04:30:02;98237.59;;;8.00;67.06
59055;BME280;44845;51.444;7.460;2024-03-02T04:32:28;98240.16;;;8.02;67.72
59055;BME280;44845;51.444;7.460;2024-03-02T04:34:54;98235.78;;;8.02;67.82
59055;BME280;44845;51.444;7.460;2024-03-02T04:37:19;98240.13;;;8.03;67.24
59055;BME280;44845;51.444;7.460;2024-03-02T04:39:45;98241.88;;;8.03;67.31
59055;BME280;44845;51.444;7.460;2024-03-02T04:42:10;98243.66;;;8.00;67.84
59055;BME280;44845;51.444;7.460;2024-03-02T04:44:36;98233.06;;;8.07;66.80
59055;BME280;44845;51.444;7.460;2024-03-02T04:47:03;98233.97;;;8.06;67.51
59055;BME280;44845;51.444;7.460;2024-03-02T04:49:28;98240.16;;;8.02;68.02
59055;BME280;44845;51.444;7.460;2024-03-02T04:51:53;98240.25;;;7.98;68.11
59055;BME280;44845;51.444;7.460;2024-03-02T04:54:19;98240.09;;;8.05;67.47
59055;BME280;44845;51.444;7.460;2024-03-02T04:56:45;98239.97;;;8.11;67.85
59055;BME280;44845;51.444;7.460;2024-03-02T04:59:14;98249.59;;;8.07;68.13
59055;BME280;44845;51.444;7.460;2024-03-02T05:01:40;98247.81;;;8.09;68.30
59055;BME280;44845;51.444;7.460;2024-03-02T05:04:05;98252.84;;;8.17;67.85
59055;BME280;44845;51.444;7.460;2024-03-02T05:06:30;98261.66;;;8.13;67.52
59055;BME280;44845;51.444;7.460;2024-03-02T05:08:56;98258.19;;;8.13;67.82
59055;BME280;44845;51.444;7.460;2024-03-02T05:11:21;98255.69;;;8.08;68.04
59055;BME280;44845;51.444;7.460;2024-03-02T05:14:02;98274.84;;;8.07;68.22
59055;BME280;44845;51.444;7.460;2024-03-02T05:16:27;98270.56;;;8.04;67.94
59055;BME280;44845;51.444;7.460;2024-03-02T05:18:52;98266.47;;;7.92;68.75
59055;BME280;44845;51.444;7.460;2024-03-02T05:21:18;98275.34;;;7.85;68.82
59055;BME280;44845;51.444;7.460;2024-03-02T05:23:43;98275.34;;;7.85;68.87
59055;BME280;44845;51.444;7.460;2024-03-02T05:26:09;98274.41;;;7.87;68.50
59055;BME280;44845;51.444;7.460;2024-03-02T05:28:38;98284.91;;;7.84;68.57
59055;BME280;44845;51.444;7.460;2024-03-02T05:31:03;98281.47;;;7.84;68.59
59055;BME280;44845;51.444;7.460;2024-03-02T05:33:28;98284.25;;;7.74;68.95
59055;BME280;44845;51.444;7.460;2024-03-02T05:35:56;98274.66;;;7.76;68.43
59055;BME280;44845;51.444;7.460;2024-03-02T05:38:21;98290.28;;;7.78;68.89
59055;BME280;44845;51.444;7.460;2024-03-02T05:40:47;98281.63;;;7.74;68.86
59055;BME280;44845;51.444;7.460;2024-03-02T05:43:12;98277.28;;;7.76;69.04
59055;BME280;44845;51.444;7.460;2024-03-02T05:45:38;98278.84;;;7.84;68.57
59055;BME280;44845;51.444;7.460;2024-03-02T05:48:05;98281.63;;;7.74;68.72
59055;BME280;44845;51.444;7.460;2024-03-02T05:50:31;98280.66;;;7.80;68.69
59055;BME280;44845;51.444;7.460;2024-03-02T05:52:56;98287.56;;;7.83;68.34
59055;BME280;44845;51.444;7.460;2024-03-02T05:55:22;98294.50;;;7.84;68.63
59055;BME280;44845;51.444;7.460;2024-03-02T05:57:47;98284.13;;;7.81;68.54
59055;BME280;44845;51.444;7.460;2024-03-02T06:00:24;98291.03;;;7.83;68.39
59055;BME280;44845;51.444;7.460;2024-03-02T06:02:50;98290.22;;;7.80;68.87
59055;BME280;44845;51.444;7.460;2024-03-02T06:05:15;98288.44;;;7.83;68.65
59055;BME280;44845;51.444;7.460;2024-03-02T06:07:42;98284.06;;;7.84;68.65
59055;BME280;44845;51.444;7.460;2024-03-02T06:10:08;98287.72;;;7.76;68.99
59055;BME280;44845;51.444;7.460;2024-03-02T06:12:34;98287.81;;;7.70;69.14
59055;BME280;44845;51.444;7.460;2024-03-02T06:14:59;98278.31;;;7.68;69.10
59055;BME280;44845;51.444;7.460;2024-03-02T06:17:25;98273.81;;;7.74;69.03
59055;BME280;44845;51.444;7.460;2024-03-02T06:19:50;98273.97;;;7.68;68.92
59055;BME280;44845;51.444;7.460;2024-03-02T06:22:15;98280.16;;;7.62;69.28
59055;BME280;44845;51.444;7.460;2024-03-02T06:24:41;98282.84;;;7.58;69.72
59055;BME280;44845;51.444;7.460;2024-03-02T06:27:06;98283.00;;;7.51;69.51
59055;BME280;44845;51.444;7.460;2024-03-02T06:29:35;98286.44;;;7.53;69.66
59055;BME280;44845;51.444;7.460;2024-03-02T06:32:00;98288.81;;;7.64;69.17
59055;BME280;44845;51.444;7.460;2024-03-02T06:34:25;98278.31;;;7.68;69.19
59055;BME280;44845;51.444;7.460;2024-03-02T06:36:51;98290.44;;;7.70;69.27
59055;BME280;44845;51.444;7.460;2024-03-02T06:39:16;98293.97;;;7.69;69.14
59055;BME280;44845;51.444;7.460;2024-03-02T06:41:41;98294.69;;;7.74;69.07
59055;BME280;44845;51.444;7.460;2024-03-02T06:44:08;98295.53;;;7.76;68.57
59055;BME280;44845;51.444;7.460;2024-03-02T06:46:33;98308.50;;;7.80;68.48
59055;BME280;44845;51.444;7.460;2024-03-02T06:48:58;98305.88;;;7.80;68.92
59055;BME280;44845;51.444;7.460;2024-03-02T06:51:24;98310.34;;;7.74;69.43
59055;BME280;44845;51.444;7.460;2024-03-02T06:53:49;98304.53;;;7.61;69.91
59055;BME280;44845;51.444;7.460;2024-03-02T06:56:15;98308.69;;;7.70;69.73
59055;BME280;44845;51.444;7.460;2024-03-02T06:58:40;98312.44;;;7.58;69.42
59055;BME280;44845;51.444;7.460;2024-03-02T07:01:05;98311.16;;;7.78;69.50
59055;BME280;44845;51.444;7.460;2024-03-02T07:03:31;98324.97;;;7.82;69.64
59055;BME280;44845;51.444;7.460;2024-03-02T07:05:57;98331.13;;;7.81;69.32
59055;BME280;44845;51.444;7.460;2024-03-02T07:08:22;98323.06;;;7.90;69.82
59055;BME280;44845;51.444;7.460;2024-03-02T07:10:47;98327.41;;;7.91;69.75
59055;BME280;44845;51.444;7.460;2024-03-02T07:13:13;98329.22;;;7.87;69.98
59055;BME280;44845;51.444;7.460;2024-03-02T07:15:38;98329.31;;;7.83;69.63
59055;BME280;44845;51.444;7.460;2024-03-02T07:18:22;98324.16;;;7.80;69.91
59055;BME280;44845;51.444;7.460;2024-03-02T07:20:48;98319.75;;;7.83;69.93
59055;BME280;44845;51.444;7.460;2024-03-02T07:23:14;98329.53;;;7.73;70.08
59055;BME280;44845;51.444;7.460;2024-03-02T07:25:39;98332.81;;;7.82;69.86
59055;BME280;44845;51.444;7.460;2024-03-02T07:28:05;98329.31;;;7.83;69.22
59055;BME280;44845;51.444;7.460;2024-03-02T07:30:32;98325.09;;;7.77;69.37
59055;BME280;44845;51.444;7.460;2024-03-02T07:32:57;98334.53;;;7.83;69.48
59055;BME280;44845;51.444;7.460;2024-03-02T07:35:23;98338.13;;;7.79;70.10
59055;BME280;44845;51.444;7.460;2024-03-02T07:37:53;98339.75;;;7.83;69.82
59055;BME280;44845;51.444;7.460;2024-03-02T07:40:20;98336.38;;;7.77;69.99
59055;BME280;44845;51.444;7.460;2024-03-02T07:42:46;98337.97;;;7.86;69.87
59055;BME280;44845;51.444;7.460;2024-03-02T07:45:11;98335.22;;;7.93;69.88
59055;BME280;44845;51.444;7.460;2024-03-02T07:47:37;98343.44;;;7.72;70.80
59055;BME280;44845;51.444;7.460;2024-03-02T07:50:02;98340.72;;;7.79;70.70
59055;BME280;44845;51.444;7.460;2024-03-02T07:52:31;98334.44;;;7.87;70.46
59055;BME280;44845;51.444;7.460;2024-03-02T07:54:56;98337.66;;;8.00;70.23
59055;BME280;44845;51.444;7.460;2024-03-02T07:57:22;98338.69;;;7.93;70.46
59055;BME280;44845;51.444;7.460;2024-03-02T07:59:47;98341.22;;;7.96;69.72
59055;BME280;44845;51.444;7.460;2024-03-02T08:02:14;98337.97;;;7.85;70.71
59055;BME280;44845;51.444;7.460;2024-03-02T08:04:40;98349.81;;;8.02;70.16
59055;BME280;44845;51.444;7.460;2024-03-02T08:07:06;98343.09;;;7.91;70.12
59055;BME280;44845;51.444;7.460;2024-03-02T08:09:31;98350.81;;;7.96;70.20
59055;BME280;44845;51.444;7.460;2024-03-02T08:11:56;98351.78;;;7.90;70.98
59055;BME280;44845;51.444;7.460;2024-03-02T08:14:23;98351.47;;;8.06;70.15
59055;BME280;44845;51.444;7.460;2024-03-02T08:16:49;98354.97;;;8.05;69.89
59055;BME280;44845;51.444;7.460;2024-03-02T08:19:14;98354.25;;;7.96;69.86
59055;BME280;44845;51.444;7.460;2024-03-02T08:21:40;98362.09;;;7.96;70.27
59055;BME280;44845;51.444;7.460;2024-03-02T08:24:05;98355.03;;;8.02;70.03
59055;BME280;44845;51.444;7.460;2024-03-02T08:26:31;98351.75;;;7.93;69.95
59055;BME280;44845;51.444;7.460;2024-03-02T08:28:58;98351.53;;;8.03;69.98
59055;BME280;44845;51.444;7.460;2024-03-02T08:31:23;98344.31;;;8.14;69.90
59055;BME280;44845;51.444;7.460;2024-03-02T08:33:49;98347.75;;;8.16;70.15
59055;BME280;44845;51.444;7.460;2024-03-02T08:36:14;98344.19;;;8.20;70.40
59055;BME280;44845;51.444;7.460;2024-03-02T08:38:40;98343.38;;;8.18;70.11
59055;BME280;44845;51.444;7.460;2024-03-02T08:41:06;98356.13;;;8.31;70.27
59055;BME280;44845;51.444;7.460;2024-03-02T08:43:32;98349.53;;;8.14;70.32
59055;BME280;44845;51.444;7.460;2024-03-02T08:45:58;98357.31;;;8.17;70.14
59055;BME280;44845;51.444;7.460;2024-03-02T08:48:23;98371.81;;;8.31;70.11
59055;BME280;44845;51.444;7.460;2024-03-02T08:50:49;98365.00;;;8.25;70.04
59055;BME280;44845;51.444;7.460;2024-03-02T08:53:14;98380.38;;;8.38;69.87
59055;BME280;44845;51.444;7.460;2024-03-02T08:55:44;98367.16;;;8.44;69.74
59055;BME280;44845;51.444;7.460;2024-03-02T08:58:09;98369.69;;;8.49;69.82
59055;BME280;44845;51.444;7.460;2024-03-02T09:00:35;98371.25;;;8.56;69.51
59055;BME280;44845;51.444;7.460;2024-03-02T09:03:00;98372.34;;;8.47;69.76
59055;BME280;44845;51.444;7.460;2024-03-02T09:05:25;98374.66;;;8.61;69.04
59055;BME280;44845;51.444;7.460;2024-03-02T09:07:51;98373.59;;;8.69;68.45
59055;BME280;44845;51.444;7.460;2024-03-02T09:10:16;98369.50;;;8.56;69.42
59055;BME280;44845;51.444;7.460;2024-03-02T09:12:42;98383.41;;;8.59;68.71
59055;BME280;44845;51.444;7.460;2024-03-02T09:15:08;98371.06;;;8.65;68.60
59055;BME280;44845;51.444;7.460;2024-03-02T09:17:33;98373.78;;;8.62;69.00
59055;BME280;44845;51.444;7.460;2024-03-02T09:19:59;98377.03;;;8.72;68.97
59055;BME280;44845;51.444;7.460;2024-03-02T09:22:24;98371.69;;;8.77;69.27
59055;BME280;44845;51.444;7.460;2024-03-02T09:24:52;98365.53;;;8.78;69.13
59055;BME280;44845;51.444;7.460;2024-03-02T09:27:17;98364.72;;;8.76;69.18
59055;BME280;44845;51.444;7.460;2024-03-02T09:29:42;98364.59;;;8.81;68.98
59055;BME280;44845;51.444;7.460;2024-03-02T09:32:11;98374.94;;;8.85;68.49
59055;BME280;44845;51.444;7.460;2024-03-02T09:34:37;98367.03;;;8.88;68.60
59055;BME280;44845;51.444;7.460;2024-03-02T09:37:02;98362.13;;;9.11;70.81
59055;BME280;44845;51.444;7.460;2024-03-02T09:39:29;98356.59;;;9.55;67.55
59055;BME280;44845;51.444;7.460;2024-03-02T09:41:55;98357.88;;;9.72;67.06
59055;BME280;44845;51.444;7.460;2024-03-02T09:44:20;98350.03;;;9.72;66.46
59055;BME280;44845;51.444;7.460;2024-03-02T09:46:50;98362.44;;;9.65;66.70
59055;BME280;44845;51.444;7.460;2024-03-02T09:49:16;98356.41;;;9.62;66.21
59055;BME280;44845;51.444;7.460;2024-03-02T09:51:46;98363.72;;;9.50;66.06
59055;BME280;44845;51.444;7.460;2024-03-02T09:54:12;98369.28;;;9.38;65.59
59055;BME280;44845;51.444;7.460;2024-03-02T09:56:38;98362.44;;;9.32;66.86
59055;BME280;44845;51.444;7.460;2024-03-02T09:59:04;98362.56;;;9.27;66.70
59055;BME280;44845;51.444;7.460;2024-03-02T10:01:30;98372.28;;;9.23;68.01
59055;BME280;44845;51.444;7.460;2024-03-02T10:04:00;98368.50;;;9.34;66.00
59055;BME280;44845;51.444;7.460;2024-03-02T10:06:28;98376.16;;;9.42;66.46
59055;BME280;44845;51.444;7.460;2024-03-02T10:08:55;98364.72;;;9.46;66.98
59055;BME280;44845;51.444;7.460;2024-03-02T10:11:28;98368.88;;;9.53;65.80
59055;BME280;44845;51.444;7.460;2024-03-02T10:14:10;98366.25;;;9.53;66.04
59055;BME280;44845;51.444;7.460;2024-03-02T10:16:40;98362.78;;;9.53;65.93
59055;BME280;44845;51.444;7.460;2024-03-02T10:21:51;98362.72;;;9.56;65.89
59055;BME280;44845;51.444;7.460;2024-03-02T10:24:18;98352.09;;;9.61;65.69
59055;BME280;44845;51.444;7.460;2024-03-02T10:26:43;98365.34;;;9.54;65.60
59055;BME280;44845;51.444;7.460;2024-03-02T10:29:10;98356.41;;;9.62;66.03
59055;BME280;44845;51.444;7.460;2024-03-02T10:31:37;98352.84;;;9.66;65.89
59055;BME280;44845;51.444;7.460;2024-03-02T10:34:03;98354.53;;;9.67;66.57
59055;BME280;44845;51.444;7.460;2024-03-02T10:36:28;98362.31;;;9.70;66.32
59055;BME280;44845;51.444;7.460;2024-03-02T10:38:56;98359.78;;;9.67;67.16
59055;BME280;44845;51.444;7.460;2024-03-02T10:41:26;98363.31;;;9.66;66.03
59055;BME280;44845;51.444;7.460;2024-03-02T10:43:52;98343.78;;;9.76;66.22
59055;BME280;44845;51.444;7.460;2024-03-02T10:46:20;98356.94;;;9.75;66.09
59055;BME280;44845;51.444;7.460;2024-03-02T10:48:47;98351.50;;;9.83;65.56
59055;BME280;44845;51.444;7.460;2024-03-02T10:51:14;98359.22;;;9.86;66.06
59055;BME280;44845;51.444;7.460;2024-03-02T10:53:40;98348.69;;;9.89;65.09
59055;BME280;44845;51.444;7.460;2024-03-02T10:56:07;98343.63;;;9.83;64.87
59055;BME280;44845;51.444;7.460;2024-03-02T10:58:35;98341.47;;;9.97;64.53
59055;BME280;44845;51.444;7.460;2024-03-02T11:01:05;98343.28;;;9.95;65.37
59055;BME280;44845;51.444;7.460;2024-03-02T11:03:35;98342.34;;;9.96;64.37
59055;BME280;44845;51.444;7.460;2024-03-02T11:06:03;98348.31;;;10.01;64.67
59055;BME280;44845;51.444;7.460;2024-03-02T11:08:34;98347.56;;;9.98;63.91
59055;BME280;44845;51.444;7.460;2024-03-02T11:11:09;98339.75;;;9.96;63.83
59055;BME280;44845;51.444;7.460;2024-03-02T11:13:37;98338.84;;;9.97;63.07
59055;BME280;44845;51.444;7.460;2024-03-02T11:16:09;98336.13;;;10.00;62.83
59055;BME280;44845;51.444;7.460;2024-03-02T11:18:38;98330.72;;;10.07;63.67
59055;BME280;44845;51.444;7.460;2024-03-02T11:21:04;98344.53;;;10.12;63.18
59055;BME280;44845;51.444;7.460;2024-03-02T11:23:34;98337.47;;;10.14;63.22
59055;BME280;44845;51.444;7.460;2024-03-02T11:26:26;98337.56;;;10.11;63.49
59055;BME280;44845;51.444;7.460;2024-03-02T11:28:53;98333.81;;;10.20;63.20
59055;BME280;44845;51.444;7.460;2024-03-02T11:31:21;98329.38;;;10.22;63.23
59055;BME280;44845;51.444;7.460;2024-03-02T11:33:46;98333.63;;;10.26;64.00
59055;BME280;44845;51.444;7.460;2024-03-02T11:36:11;98324.81;;;10.29;64.34
59055;BME280;44845;51.444;7.460;2024-03-02T11:38:37;98324.72;;;10.32;63.23
59055;BME280;44845;51.444;7.460;2024-03-02T11:41:06;98323.72;;;10.36;63.53
59055;BME280;44845;51.444;7.460;2024-03-02T11:43:32;98322.81;;;10.37;63.43
59055;BME280;44845;51.444;7.460;2024-03-02T11:46:03;98316.91;;;10.59;62.33
59055;BME280;44845;51.444;7.460;2024-03-02T11:48:32;98327.63;;;10.50;63.71
59055;BME280;44845;51.444;7.460;2024-03-02T11:50:58;98323.25;;;10.52;63.64
59055;BME280;44845;51.444;7.460;2024-03-02T11:53:26;98321.56;;;10.49;64.16
59055;BME280;44845;51.444;7.460;2024-03-02T11:55:57;98322.19;;;10.57;63.25
59055;BME280;44845;51.444;7.460;2024-03-02T11:58:23;98315.19;;;10.58;62.91
59055;BME280;44845;51.444;7.460;2024-03-02T12:00:52;98323.94;;;10.57;62.67
59055;BME280;44845;51.444;7.460;2024-03-02T12:03:20;98321.94;;;10.65;62.42
59055;BME280;44845;51.444;7.460;2024-03-02T12:05:48;98308.94;;;10.62;62.72
59055;BME280;44845;51.444;7.460;2024-03-02T12:08:14;98319.97;;;10.72;63.10
59055;BME280;44845;51.444;7.460;2024-03-02T12:10:39;98300.66;;;10.75;62.83
59055;BME280;44845;51.444;7.460;2024-03-02T12:13:06;98305.91;;;10.75;62.63
59055;BME280;44845;51.444;7.460;2024-03-02T12:15:34;98298.84;;;10.77;62.18
59055;BME280;44845;51.444;7.460;2024-03-02T12:18:02;98296.34;;;10.74;62.57
59055;BME280;44845;51.444;7.460;2024-03-02T12:20:32;98302.28;;;10.79;61.97
59055;BME280;44845;51.444;7.460;2024-03-02T12:22:59;98298.00;;;10.76;62.92
59055;BME280;44845;51.444;7.460;2024-03-02T12:25:25;98304.19;;;10.74;62.70
59055;BME280;44845;51.444;7.460;2024-03-02T12:27:54;98315.28;;;10.82;62.47
59055;BME280;44845;51.444;7.460;2024-03-02T12:30:20;98296.03;;;10.83;61.89
59055;BME280;44845;51.444;7.460;2024-03-02T12:32:45;98307.22;;;10.88;61.87
59055;BME280;44845;51.444;7.460;2024-03-02T12:35:11;98315.66;;;10.97;62.16
59055;BME280;44845;51.444;7.460;2024-03-02T12:40:13;98315.47;;;11.03;61.53
59055;BME280;44845;51.444;7.460;2024-03-02T12:42:40;98308.31;;;11.08;61.59
59055;BME280;44845;51.444;7.460;2024-03-02T12:45:10;98309.28;;;11.04;60.60
59055;BME280;44845;51.444;7.460;2024-03-02T12:47:36;98301.44;;;11.04;61.03
59055;BME280;44845;51.444;7.460;2024-03-02T12:50:04;98298.47;;;11.13;60.92
59055;BME280;44845;51.444;7.460;2024-03-02T12:52:30;98289.81;;;11.11;61.37
59055;BME280;44845;51.444;7.460;2024-03-02T12:54:55;98286.38;;;11.09;61.80
59055;BME280;44845;51.444;7.460;2024-03-02T12:57:28;98286.28;;;11.12;62.28
59055;BME280;44845;51.444;7.460;2024-03-02T13:00:04;98285.41;;;11.12;62.15
59055;BME280;44845;51.444;7.460;2024-03-02T13:02:39;98273.22;;;11.11;62.67
59055;BME280;44845;51.444;7.460;2024-03-02T13:05:06;98275.84;;;11.11;62.19
59055;BME280;44845;51.444;7.460;2024-03-02T13:07:31;98275.78;;;11.12;61.81
59055;BME280;44845;51.444;7.460;2024-03-02T13:09:59;98290.72;;;11.10;61.34
59055;BME280;44845;51.444;7.460;2024-03-02T13:12:24;98281.72;;;11.18;60.99
59055;BME280;44845;51.444;7.460;2024-03-02T13:14:53;98287.16;;;11.13;61.19